Time;durP1;ratioP1;P1;durP2;ratioP2;P2;SDS_P1;SDS_P2;PMS_P1;PMS_P2;Temp;Humidity;BMP_temperature;BMP_pressure;BME280_temperature;BME280_humidity;BME280_pressure;Samples;Min_cycle;Max_cycle;Signal;HPM_P1;HPM_P2
2022/06/28 00:08:18;;;;;;;9.67;3.50;;;15.10;1.00;;;;;;5071016;28;20911;-80
2022/06/28 00:11:14;;;;;;;4.17;2.93;;;15.10;1.00;;;;;;5069108;28;20420;-79
2022/06/28 00:17:24;;;;;;;3.30;3.00;;;14.90;1.00;;;;;;5058539;28;20401;-80
2022/06/28 00:23:11;;;;;;;5.70;3.47;;;14.70;1.00;;;;;;5090082;28;20451;-75
2022/06/28 00:25:48;;;;;;;5.20;3.90;;;14.70;1.00;;;;;;5071480;28;20941;-75
2022/06/28 00:28:18;;;;;;;5.23;3.03;;;14.50;1.00;;;;;;5085274;28;20195;-75
2022/06/28 00:31:06;;;;;;;7.40;3.00;;;14.50;1.00;;;;;;5064486;28;20467;-75
2022/06/28 00:33:36;;;;;;;3.47;3.17;;;14.50;1.00;;;;;;5066104;28;20499;-75
2022/06/28 00:36:30;;;;;;;6.10;3.40;;;14.40;1.00;;;;;;5061441;28;20406;-76
2022/06/28 00:39:24;;;;;;;5.43;3.30;;;14.40;1.00;;;;;;5074918;28;20445;-80
2022/06/28 00:41:54;;;;;;;3.30;3.03;;;14.30;1.00;;;;;;5062676;28;20751;-80
2022/06/28 00:44:54;;;;;;;8.40;3.40;;;14.30;1.00;;;;;;5072669;28;20935;-80
2022/06/28 00:47:55;;;;;;;9.77;4.53;;;14.20;1.00;;;;;;5057273;28;20431;-80
2022/06/28 00:50:54;;;;;;;4.23;3.40;;;14.10;1.00;;;;;;5070121;28;20423;-80
2022/06/28 00:53:30;;;;;;;6.23;4.00;;;14.10;1.00;;;;;;5066088;28;20427;-76
2022/06/28 00:56:00;;;;;;;7.23;3.77;;;14.00;1.00;;;;;;5088349;28;20420;-76
2022/06/28 00:58:36;;;;;;;11.17;3.70;;;14.00;1.00;;;;;;5074100;28;20877;-75
2022/06/28 01:01:48;;;;;;;5.07;3.17;;;14.00;1.00;;;;;;5074282;28;20387;-75
2022/06/28 01:04:13;;;;;;;24.70;4.40;;;13.90;1.00;;;;;;5059510;28;20479;-75
2022/06/28 01:06:48;;;;;;;4.23;3.73;;;13.90;1.00;;;;;;5074728;28;20441;-75
2022/06/28 01:09:24;;;;;;;6.30;4.00;;;13.90;1.00;;;;;;5074131;28;20180;-80
2022/06/28 01:12:24;;;;;;;7.67;4.20;;;13.80;1.00;;;;;;5060173;28;20444;-80
2022/06/28 01:15:24;;;;;;;8.07;4.30;;;13.80;1.00;;;;;;5086554;28;20450;-80
2022/06/28 01:18:24;;;;;;;7.10;3.30;;;13.70;1.00;;;;;;5065032;28;20432;-80
2022/06/28 01:21:24;;;;;;;7.13;4.00;;;13.70;1.00;;;;;;5062255;28;20421;-80
2022/06/28 01:23:50;;;;;;;5.23;4.03;;;13.60;1.00;;;;;;5073746;28;20469;-75
2022/06/28 01:26:21;;;;;;;4.33;3.93;;;13.60;1.00;;;;;;5060986;28;20414;-76
2022/06/28 01:28:51;;;;;;;6.93;4.57;;;13.60;1.60;;;;;;5073219;28;20391;-75
2022/06/28 01:31:18;;;;;;;11.93;4.73;;;13.50;4.00;;;;;;5060405;28;20476;-75
2022/06/28 01:33:56;;;;;;;6.20;4.10;;;13.50;5.10;;;;;;5065985;28;20963;-75
2022/06/28 01:36:54;;;;;;;4.30;3.90;;;13.50;5.40;;;;;;5056275;28;20446;-75
2022/06/28 01:39:24;;;;;;;10.50;4.20;;;13.40;7.20;;;;;;5073631;28;20431;-80
2022/06/28 01:42:24;;;;;;;7.10;4.60;;;13.40;5.60;;;;;;5060000;28;20898;-80
2022/06/28 01:45:24;;;;;;;5.10;4.20;;;13.30;8.70;;;;;;5054733;28;20483;-80
2022/06/28 01:51:24;;;;;;;11.10;4.50;;;13.20;18.00;;;;;;5086569;28;20386;-80
2022/06/28 01:53:54;;;;;;;7.70;4.67;;;13.20;15.20;;;;;;5073949;28;20390;-76
2022/06/28 01:56:25;;;;;;;11.57;4.50;;;13.20;11.70;;;;;;5057234;28;20775;-75
2022/06/28 01:58:55;;;;;;;5.97;4.20;;;13.20;10.90;;;;;;5053727;28;20369;-75
2022/06/28 02:01:37;;;;;;;11.63;4.23;;;13.20;11.60;;;;;;5064847;28;20425;-75
2022/06/28 02:04:25;;;;;;;4.03;3.73;;;13.20;11.30;;;;;;5056722;28;20414;-75
2022/06/28 02:06:55;;;;;;;13.43;4.90;;;13.10;11.60;;;;;;5068808;28;20987;-75
2022/06/28 02:09:25;;;;;;;6.33;3.97;;;13.10;11.40;;;;;;5066961;28;20941;-75
2022/06/28 02:11:52;;;;;;;4.83;4.00;;;13.10;14.30;;;;;;5054231;28;20469;-76
2022/06/28 02:14:24;;;;;;;4.70;4.00;;;13.10;11.50;;;;;;5053568;28;20456;-76
2022/06/28 02:16:56;;;;;;;4.40;4.00;;;13.00;13.70;;;;;;5068279;28;20914;-76
2022/06/28 02:19:25;;;;;;;10.83;4.17;;;13.00;14.70;;;;;;5073082;28;20414;-75
2022/06/28 02:21:54;;;;;;;5.40;4.37;;;13.00;14.30;;;;;;5075810;28;21038;-75
2022/06/28 02:24:20;;;;;;;8.00;4.00;;;12.90;13.00;;;;;;5073771;28;20429;-80
2022/06/28 02:26:54;;;;;;;10.83;4.60;;;12.90;14.50;;;;;;5068255;28;20477;-80
2022/06/28 02:29:54;;;;;;;8.63;5.00;;;12.90;13.90;;;;;;5053158;28;20164;-80
2022/06/28 02:32:24;;;;;;;4.60;4.10;;;12.80;12.00;;;;;;5063051;28;20407;-80
2022/06/28 02:41:29;;;;;;;7.57;4.60;;;12.70;18.50;;;;;;5075042;28;20394;-75
2022/06/28 02:44:06;;;;;;;10.43;4.50;;;12.70;19.90;;;;;;5065715;28;20806;-75
2022/06/28 02:46:54;;;;;;;5.60;5.10;;;12.70;21.10;;;;;;5069480;28;20199;-75
2022/06/28 02:49:24;;;;;;;27.33;5.20;;;12.60;21.10;;;;;;5061175;28;20398;-76
2022/06/28 02:51:54;;;;;;;7.40;6.03;;;12.60;21.20;;;;;;5071737;28;20503;-75
2022/06/28 02:54:24;;;;;;;5.57;4.60;;;12.60;23.30;;;;;;5073667;28;20380;-76
2022/06/28 02:56:54;;;;;;;12.73;4.40;;;12.60;26.40;;;;;;5067790;28;20769;-75
2022/06/28 02:59:24;;;;;;;7.10;5.13;;;12.60;25.30;;;;;;5063123;28;20440;-75
2022/06/28 03:01:54;;;;;;;5.67;4.50;;;12.50;25.90;;;;;;5076813;28;20470;-75
2022/06/28 03:04:24;;;;;;;6.30;4.37;;;12.60;25.70;;;;;;5062586;28;20437;-75
2022/06/28 03:06:54;;;;;;;5.00;4.10;;;12.50;24.30;;;;;;5063773;28;20448;-75
2022/06/28 03:09:24;;;;;;;5.80;4.27;;;12.50;22.10;;;;;;5077175;28;20798;-80
2022/06/28 03:11:54;;;;;;;5.70;4.67;;;12.50;23.20;;;;;;5082385;28;20539;-80
2022/06/28 03:17:42;;;;;;;8.10;4.67;;;12.50;23.90;;;;;;5066881;28;20728;-80
2022/06/28 03:20:24;;;;;;;6.50;4.87;;;12.50;24.70;;;;;;5073454;28;20424;-80
2022/06/28 03:22:55;;;;;;;5.33;4.83;;;12.40;26.20;;;;;;5067161;28;20414;-80
2022/06/28 03:25:24;;;;;;;5.37;4.70;;;12.40;25.00;;;;;;5071095;28;20524;-81
2022/06/28 03:27:54;;;;;;;5.50;4.63;;;12.40;26.70;;;;;;5060589;28;20436;-81
2022/06/28 03:30:24;;;;;;;9.23;4.80;;;12.40;24.10;;;;;;5069746;28;20398;-80
2022/06/28 03:36:12;;;;;;;7.90;4.20;;;12.40;28.50;;;;;;5063532;28;20437;-80
2022/06/28 03:38:37;;;;;;;8.63;4.50;;;12.40;33.20;;;;;;5073773;28;20404;-80
2022/06/28 03:41:03;;;;;;;7.70;5.13;;;12.40;33.50;;;;;;5088527;28;20657;-76
2022/06/28 03:43:28;;;;;;;11.77;4.90;;;12.40;36.90;;;;;;5087423;28;20273;-75
2022/06/28 03:45:54;;;;;;;5.07;4.60;;;12.20;35.70;;;;;;5074639;28;20254;-76
2022/06/28 03:48:20;;;;;;;5.67;5.07;;;12.40;38.00;;;;;;5082411;28;20187;-76
2022/06/28 03:50:45;;;;;;;8.20;5.37;;;12.30;43.80;;;;;;5075075;28;20179;-75
2022/06/28 03:53:11;;;;;;;6.80;5.30;;;12.40;44.20;;;;;;5074272;28;20546;-76
2022/06/28 03:55:36;;;;;;;8.73;4.90;;;12.50;44.00;;;;;;5075729;28;20162;-81
2022/06/28 03:58:02;;;;;;;6.33;5.10;;;12.80;43.80;;;;;;5082316;28;20166;-81
2022/06/28 04:00:28;;;;;;;9.00;5.70;;;12.70;44.10;;;;;;5080643;28;20164;-81
2022/06/28 04:02:53;;;;;;;7.80;6.13;;;12.50;44.00;;;;;;5074158;28;20262;-81
2022/06/28 04:05:19;;;;;;;10.10;6.10;;;12.50;44.10;;;;;;5074388;28;20197;-81
2022/06/28 04:07:44;;;;;;;9.53;6.70;;;12.70;44.30;;;;;;5074583;28;20244;-81
2022/06/28 04:10:10;;;;;;;13.07;6.30;;;12.60;44.40;;;;;;5074897;28;20202;-81
2022/06/28 04:12:36;;;;;;;31.77;7.03;;;12.70;44.30;;;;;;5074495;28;20677;-81
2022/06/28 04:15:01;;;;;;;7.57;6.23;;;12.70;44.30;;;;;;5088053;28;20189;-81
2022/06/28 04:17:27;;;;;;;13.40;6.20;;;12.80;44.40;;;;;;5074111;28;20262;-81
2022/06/28 04:19:53;;;;;;;14.13;5.80;;;12.80;44.40;;;;;;5074287;28;20183;-81
2022/06/28 04:22:18;;;;;;;5.77;5.10;;;13.00;44.60;;;;;;5072748;28;20186;-81
2022/06/28 04:24:44;;;;;;;14.93;5.60;;;13.10;44.70;;;;;;5074439;28;20260;-76
2022/06/28 04:27:09;;;;;;;6.40;5.47;;;12.90;44.70;;;;;;5071143;28;20202;-76
2022/06/28 04:29:35;;;;;;;11.90;5.23;;;13.00;44.80;;;;;;5074180;28;20178;-76
2022/06/28 04:32:01;;;;;;;23.83;5.70;;;13.00;44.50;;;;;;5073700;28;20179;-75
2022/06/28 04:34:26;;;;;;;8.73;5.90;;;13.00;44.80;;;;;;5074020;28;20540;-76
2022/06/28 04:36:52;;;;;;;7.60;5.67;;;13.10;44.60;;;;;;5070183;28;20176;-76
2022/06/28 04:39:18;;;;;;;6.60;4.83;;;13.20;44.70;;;;;;5070391;28;20175;-76
2022/06/28 04:41:43;;;;;;;6.23;5.23;;;13.20;44.70;;;;;;5078503;28;20178;-79
2022/06/28 04:44:09;;;;;;;5.33;4.83;;;13.40;44.80;;;;;;5073845;28;20240;-78
2022/06/28 04:46:34;;;;;;;16.10;5.93;;;13.30;44.70;;;;;;5072598;28;20291;-79
2022/06/28 04:49:00;;;;;;;7.73;5.53;;;13.30;44.80;;;;;;5072760;28;20175;-79
2022/06/28 04:51:26;;;;;;;8.03;5.83;;;13.40;44.90;;;;;;5068239;28;20195;-79
2022/06/28 04:53:51;;;;;;;7.50;5.97;;;13.50;45.20;;;;;;5067462;28;20258;-78
2022/06/28 04:56:17;;;;;;;9.07;5.80;;;13.60;45.10;;;;;;5060937;28;20172;-84
2022/06/28 04:58:43;;;;;;;8.90;6.53;;;13.60;45.10;;;;;;5054200;28;20184;-85
2022/06/28 05:01:09;;;;;;;10.27;6.43;;;13.70;45.30;;;;;;5066061;28;20217;-85
2022/06/28 05:03:34;;;;;;;7.03;6.20;;;13.80;45.40;;;;;;5072434;28;20221;-85
2022/06/28 05:06:00;;;;;;;6.63;5.73;;;13.80;45.50;;;;;;5072469;28;20496;-85
2022/06/28 05:08:25;;;;;;;16.53;6.73;;;13.90;45.40;;;;;;5072801;28;20195;-85
2022/06/28 05:10:51;;;;;;;9.30;6.33;;;14.00;45.50;;;;;;5072933;28;20262;-85
2022/06/28 05:13:17;;;;;;;7.27;6.47;;;14.10;45.50;;;;;;5072644;28;20262;-85
2022/06/28 05:15:48;;;;;;;8.63;6.10;;;14.30;45.70;;;;;;5072881;28;20171;-85
2022/06/28 05:18:14;;;;;;;9.40;6.90;;;14.30;45.90;;;;;;5073140;28;20413;-85
2022/06/28 05:20:39;;;;;;;8.67;6.70;;;14.50;46.10;;;;;;5073069;28;20418;-86
2022/06/28 05:23:05;;;;;;;10.53;7.00;;;14.60;46.00;;;;;;5072767;28;20194;-86
2022/06/28 05:25:30;;;;;;;9.47;6.63;;;14.70;46.10;;;;;;5071273;28;20191;-85
2022/06/28 05:27:56;;;;;;;9.30;7.30;;;14.80;46.20;;;;;;5072840;28;20191;-85
2022/06/28 05:30:22;;;;;;;10.67;8.47;;;14.90;46.20;;;;;;5073855;28;20155;-85
2022/06/28 05:32:48;;;;;;;16.77;10.10;;;15.00;46.20;;;;;;5070195;28;20171;-85
2022/06/28 05:35:13;;;;;;;12.03;8.70;;;15.10;46.40;;;;;;5067894;28;20427;-85
2022/06/28 05:37:39;;;;;;;11.00;7.53;;;15.30;46.60;;;;;;5065522;28;20229;-85
2022/06/28 05:40:05;;;;;;;10.27;6.83;;;15.40;46.70;;;;;;5072525;28;20175;-85
2022/06/28 05:42:31;;;;;;;12.03;8.37;;;15.50;35.30;;;;;;5071484;28;20189;-79
2022/06/28 05:44:56;;;;;;;15.33;8.07;;;15.60;30.40;;;;;;5072710;28;20405;-79
2022/06/28 05:47:22;;;;;;;12.53;7.23;;;15.80;25.80;;;;;;5072856;28;20187;-78
2022/06/28 05:49:47;;;;;;;10.90;6.77;;;15.90;19.20;;;;;;5075430;28;20534;-79
2022/06/28 05:52:13;;;;;;;14.33;9.53;;;16.00;16.90;;;;;;5080496;28;20212;-79
2022/06/28 05:54:39;;;;;;;12.80;10.57;;;16.10;13.90;;;;;;5072854;28;20214;-79
2022/06/28 05:57:05;;;;;;;12.13;9.80;;;16.30;6.30;;;;;;5073704;28;20392;-90
2022/06/28 05:59:32;;;;;;;13.43;8.00;;;16.40;1.00;;;;;;5060092;28;20175;-90
2022/06/28 06:02:06;;;;;;;10.60;7.80;;;16.50;1.00;;;;;;5072441;28;20183;-94
2022/06/28 06:04:42;;;;;;;12.43;7.97;;;16.60;1.00;;;;;;5073598;28;20444;-94
2022/06/28 06:07:30;;;;;;;11.83;8.60;;;16.90;1.00;;;;;;5073107;28;20478;-87
2022/06/28 06:10:18;;;;;;;15.57;7.90;;;16.90;1.00;;;;;;5064804;28;20417;-88
2022/06/28 06:13:12;;;;;;;8.97;7.20;;;17.10;1.00;;;;;;5072828;28;20434;-84
2022/06/28 06:25:43;;;;;;;12.63;8.13;;;17.70;1.00;;;;;;5066748;28;20976;-84
2022/06/28 06:28:09;;;;;;;9.70;6.80;;;17.80;1.00;;;;;;5074247;28;20483;-88
2022/06/28 06:37:19;;;;;;;14.37;8.40;;;18.30;1.00;;;;;;5077533;28;20426;-88
2022/06/28 06:39:44;;;;;;;10.23;8.10;;;18.50;1.00;;;;;;5072989;28;20421;-88
2022/06/28 06:48:54;;;;;;;7.20;5.90;;;19.10;1.00;;;;;;5077287;28;20435;-87
2022/06/28 07:01:36;;;;;;;4.70;3.20;;;19.70;1.00;;;;;;5068083;28;20428;-82
2022/06/28 07:04:30;;;;;;;3.50;3.20;;;19.80;1.00;;;;;;5086564;28;20932;-83
2022/06/28 07:07:35;;;;;;;4.50;3.30;;;19.90;1.00;;;;;;5079424;28;20453;-83
2022/06/28 07:10:03;;;;;;;3.03;2.67;;;20.10;1.00;;;;;;5076368;28;20414;-83
2022/06/28 07:12:29;;;;;;;3.73;2.60;;;20.20;1.00;;;;;;5072602;28;20445;-82
2022/06/28 07:14:55;;;;;;;2.83;2.23;;;20.30;1.00;;;;;;5074003;28;20960;-83
2022/06/28 07:17:21;;;;;;;5.67;2.37;;;20.50;1.00;;;;;;5075812;28;20405;-83
2022/06/28 07:19:47;;;;;;;2.67;2.33;;;20.60;1.00;;;;;;5062343;28;20912;-82
2022/06/28 07:25:35;;;;;;;10.13;2.33;;;20.60;1.00;;;;;;5061296;28;20224;-82
2022/06/28 07:28:08;;;;;;;4.33;2.50;;;20.70;1.00;;;;;;5062826;28;20466;-82
2022/06/28 07:37:18;;;;;;;2.40;1.87;;;21.00;1.00;;;;;;5075771;28;20458;-82
2022/06/28 07:40:36;;;;;;;2.23;2.13;;;21.00;1.00;;;;;;5065442;28;20424;-82
2022/06/28 07:46:24;;;;;;;5.53;1.43;;;21.10;1.00;;;;;;5073344;28;20406;-82
2022/06/28 07:52:37;;;;;;;7.53;1.43;;;21.00;1.00;;;;;;5075215;28;20187;-83
2022/06/28 07:55:48;;;;;;;3.13;1.37;;;21.10;1.00;;;;;;5075369;28;20748;-78
2022/06/28 07:58:54;;;;;;;1.53;1.43;;;21.20;1.00;;;;;;5070619;28;20418;-82
2022/06/28 08:04:48;;;;;;;1.90;1.13;;;21.70;1.00;;;;;;5061756;28;20440;-81
2022/06/28 08:07:14;;;;;;;1.57;1.20;;;21.80;1.00;;;;;;5072535;28;21159;-83
2022/06/28 08:09:39;;;;;;;2.07;1.70;;;21.90;1.00;;;;;;5073191;28;20421;-80
2022/06/28 08:12:24;;;;;;;3.70;1.30;;;22.10;1.00;;;;;;5099791;28;20178;-79
2022/06/28 08:14:50;;;;;;;8.00;1.20;;;22.20;1.00;;;;;;5074849;28;20549;-81
2022/06/28 08:17:15;;;;;;;6.50;1.30;;;22.30;1.00;;;;;;5072664;28;20429;-81
2022/06/28 08:19:42;;;;;;;3.30;1.23;;;22.40;1.00;;;;;;5074256;28;20197;-82
2022/06/28 08:22:08;;;;;;;1.63;1.00;;;22.30;1.00;;;;;;5073956;28;20198;-81
2022/06/28 08:24:33;;;;;;;1.60;0.87;;;22.40;1.00;;;;;;5073756;28;20917;-81
2022/06/28 08:26:59;;;;;;;2.57;0.80;;;22.40;1.00;;;;;;5073740;28;20207;-81
2022/06/28 08:29:25;;;;;;;2.33;1.07;;;22.40;1.00;;;;;;5063115;28;20220;-78
2022/06/28 08:31:50;;;;;;;1.63;1.03;;;22.50;1.00;;;;;;5073542;28;20688;-78
2022/06/28 08:34:16;;;;;;;1.30;1.20;;;22.60;1.00;;;;;;5073777;28;20180;-78
2022/06/28 08:36:42;;;;;;;2.03;1.07;;;22.70;1.00;;;;;;5070806;28;20187;-78
2022/06/28 08:39:12;;;;;;;1.33;1.17;;;22.70;1.00;;;;;;5072918;28;20296;-78
2022/06/28 08:41:41;;;;;;;2.70;1.20;;;22.70;1.00;;;;;;5074004;28;20179;-78
2022/06/28 08:44:08;;;;;;;1.80;1.20;;;22.80;1.00;;;;;;5071604;28;20426;-79
2022/06/28 08:46:34;;;;;;;6.00;1.20;;;22.80;1.00;;;;;;5084831;28;20401;-79
2022/06/28 08:49:12;;;;;;;1.10;1.00;;;22.80;1.00;;;;;;5075743;28;20912;-79
2022/06/28 08:51:38;;;;;;;2.33;1.00;;;22.90;1.00;;;;;;5072378;28;20418;-79
2022/06/28 08:54:04;;;;;;;2.60;1.13;;;22.90;1.00;;;;;;5081983;28;20937;-79
2022/06/28 08:56:30;;;;;;;1.47;0.93;;;23.10;1.00;;;;;;5069966;28;20420;-79
2022/06/28 08:58:59;;;;;;;1.20;0.73;;;23.10;1.00;;;;;;5073145;28;20205;-79
2022/06/28 09:01:25;;;;;;;1.73;0.90;;;23.20;1.00;;;;;;5065872;28;20205;-78
2022/06/28 09:03:53;;;;;;;1.73;0.80;;;23.30;1.00;;;;;;5069338;28;20762;-78
2022/06/28 09:06:19;;;;;;;1.93;1.03;;;23.40;1.00;;;;;;5071884;28;20420;-78
2022/06/28 09:08:45;;;;;;;2.83;0.90;;;23.50;1.00;;;;;;5063836;28;20456;-79
2022/06/28 09:11:11;;;;;;;1.47;0.80;;;23.50;1.00;;;;;;5069602;28;20173;-78
2022/06/28 09:13:37;;;;;;;2.20;1.00;;;23.70;1.00;;;;;;5083407;28;20434;-80
2022/06/28 09:16:04;;;;;;;3.50;1.03;;;23.60;1.00;;;;;;5077501;28;20263;-80
2022/06/28 09:18:36;;;;;;;3.43;1.00;;;23.70;1.00;;;;;;5059464;28;20423;-81
2022/06/28 09:21:06;;;;;;;3.37;0.80;;;23.80;1.00;;;;;;5060632;28;20506;-80
2022/06/28 09:23:40;;;;;;;2.40;1.00;;;23.90;1.00;;;;;;5072671;28;20516;-80
2022/06/28 09:26:15;;;;;;;2.00;0.90;;;24.00;1.00;;;;;;5073964;28;20430;-81
2022/06/28 09:28:46;;;;;;;2.40;1.17;;;24.00;1.00;;;;;;5070012;28;20474;-78
2022/06/28 09:31:15;;;;;;;1.63;1.10;;;24.10;1.00;;;;;;5058323;28;20459;-78
2022/06/28 09:33:46;;;;;;;1.60;1.07;;;24.20;1.00;;;;;;5072838;28;20468;-79
2022/06/28 09:36:14;;;;;;;3.17;1.20;;;24.30;1.00;;;;;;5072521;28;20420;-78
2022/06/28 09:38:40;;;;;;;1.00;0.90;;;24.40;1.00;;;;;;5072840;28;20786;-78
2022/06/28 09:41:19;;;;;;;2.03;0.97;;;24.50;1.00;;;;;;5072522;28;20432;-78
2022/06/28 09:44:03;;;;;;;2.30;1.10;;;24.50;1.00;;;;;;5075765;28;20499;-80
2022/06/28 09:46:31;;;;;;;4.03;0.90;;;24.60;1.00;;;;;;5072714;28;20419;-81
2022/06/28 09:49:05;;;;;;;1.83;0.90;;;24.60;1.00;;;;;;5064607;28;20434;-76
2022/06/28 09:51:44;;;;;;;1.63;0.90;;;24.80;1.00;;;;;;5074018;28;20400;-75
2022/06/28 09:54:12;;;;;;;1.93;1.03;;;24.90;1.00;;;;;;5078728;28;20432;-76
2022/06/28 09:56:41;;;;;;;4.00;0.90;;;24.90;1.00;;;;;;5070630;28;20412;-76
2022/06/28 09:59:08;;;;;;;2.03;0.80;;;24.90;1.00;;;;;;5063172;28;20959;-72
2022/06/28 10:01:37;;;;;;;1.10;0.80;;;24.90;1.00;;;;;;5072959;28;20781;-72
2022/06/28 10:04:06;;;;;;;2.30;1.10;;;25.00;1.00;;;;;;5072953;28;20420;-74
2022/06/28 10:06:33;;;;;;;2.40;1.10;;;25.10;1.00;;;;;;5080769;28;20767;-72
2022/06/28 10:08:59;;;;;;;3.03;0.90;;;25.10;1.00;;;;;;5069396;28;20416;-72
2022/06/28 10:11:24;;;;;;;1.73;1.10;;;25.20;1.00;;;;;;5070368;28;20418;-72
2022/06/28 10:16:46;;;;;;;3.77;0.90;;;25.10;1.00;;;;;;5057861;28;20189;-76
2022/06/28 10:19:24;;;;;;;2.30;1.43;;;25.30;1.00;;;;;;5060883;28;20465;-75
2022/06/28 10:21:52;;;;;;;1.33;1.00;;;25.30;1.00;;;;;;5053480;28;20421;-76
2022/06/28 10:24:19;;;;;;;9.13;1.00;;;25.40;1.00;;;;;;5082418;28;20877;-77
2022/06/28 10:27:06;;;;;;;2.70;1.20;;;25.50;1.00;;;;;;5079960;28;20469;-75
2022/06/28 10:29:32;;;;;;;0.87;0.80;;;25.60;1.00;;;;;;5073671;28;20414;-76
2022/06/28 10:32:00;;;;;;;1.07;0.80;;;25.60;1.00;;;;;;5073347;28;20890;-76
2022/06/28 10:34:56;;;;;;;2.53;1.00;;;25.60;1.00;;;;;;5059687;28;20648;-75
2022/06/28 10:37:30;;;;;;;1.20;0.90;;;25.60;1.00;;;;;;5016764;28;20953;-76
2022/06/28 10:40:22;;;;;;;1.93;0.87;;;25.60;1.00;;;;;;5031042;28;20414;-75
2022/06/28 10:42:51;;;;;;;0.90;0.80;;;25.60;1.00;;;;;;4972313;28;20424;-76
2022/06/28 10:45:19;;;;;;;2.20;0.87;;;25.70;1.00;;;;;;4972292;28;20420;-72
2022/06/28 10:48:13;;;;;;;1.03;0.80;;;25.80;1.00;;;;;;4959512;28;20491;-73
2022/06/28 10:51:15;;;;;;;6.03;1.20;;;25.80;1.00;;;;;;4969948;28;20890;-72
2022/06/28 10:54:01;;;;;;;3.03;0.70;;;26.00;1.00;;;;;;4911901;29;20430;-72
2022/06/28 10:56:37;;;;;;;2.70;1.10;;;26.10;1.00;;;;;;4906697;29;20429;-72
2022/06/28 10:59:19;;;;;;;3.33;1.20;;;26.20;1.00;;;;;;4899004;29;20442;-75
2022/06/28 11:01:55;;;;;;;2.57;0.80;;;26.20;1.00;;;;;;4916704;29;20413;-76
2022/06/28 11:04:25;;;;;;;1.70;0.87;;;26.30;1.00;;;;;;4918382;29;20426;-75
2022/06/28 11:07:14;;;;;;;9.30;0.80;;;26.30;1.00;;;;;;4917999;29;20467;-76
2022/06/28 11:10:06;;;;;;;2.00;0.80;;;26.30;1.00;;;;;;4918066;29;20636;-75
2022/06/28 11:12:39;;;;;;;1.03;0.93;;;26.50;1.00;;;;;;4917963;29;20525;-76
2022/06/28 11:15:35;;;;;;;1.00;0.80;;;26.60;1.00;;;;;;4954789;29;20417;-73
2022/06/28 11:18:01;;;;;;;2.03;0.80;;;26.60;1.00;;;;;;4952079;29;20490;-72
2022/06/28 11:20:29;;;;;;;1.63;0.90;;;26.70;1.00;;;;;;4979803;28;20417;-72
2022/06/28 11:22:55;;;;;;;4.00;1.07;;;26.80;1.00;;;;;;4978477;28;20450;-72
2022/06/28 11:25:23;;;;;;;1.33;0.80;;;26.80;1.00;;;;;;4993528;28;20401;-72
2022/06/28 11:27:56;;;;;;;3.83;0.90;;;26.80;1.00;;;;;;5044102;28;20222;-73
2022/06/28 11:30:28;;;;;;;0.90;0.70;;;26.90;1.00;;;;;;5069288;28;20438;-72
2022/06/28 11:32:55;;;;;;;2.83;0.90;;;27.00;1.00;;;;;;5075497;28;20507;-73
2022/06/28 11:35:24;;;;;;;3.80;0.80;;;27.10;1.00;;;;;;5075840;28;20970;-73
2022/06/28 11:38:05;;;;;;;4.27;0.73;;;27.20;1.00;;;;;;5074629;28;20809;-73
2022/06/28 11:40:47;;;;;;;0.83;0.80;;;27.30;1.00;;;;;;5081183;28;20433;-72
2022/06/28 11:43:15;;;;;;;3.57;0.80;;;27.30;1.00;;;;;;5075554;28;20507;-73
2022/06/28 11:45:49;;;;;;;1.10;0.80;;;27.30;1.00;;;;;;5072463;28;20419;-76
2022/06/28 11:48:33;;;;;;;2.80;0.70;;;27.30;1.00;;;;;;5066590;28;20561;-75
2022/06/28 11:51:00;;;;;;;0.80;0.80;;;27.30;1.00;;;;;;5062300;28;20836;-76
2022/06/28 11:53:44;;;;;;;3.43;0.90;;;27.30;1.00;;;;;;5075156;28;20447;-76
2022/06/28 11:56:51;;;;;;;1.67;0.80;;;27.40;1.00;;;;;;5071359;28;20979;-75
2022/06/28 11:59:18;;;;;;;2.80;1.00;;;27.50;1.00;;;;;;5067541;28;20429;-76
2022/06/28 12:01:48;;;;;;;0.93;0.77;;;27.30;1.00;;;;;;5073844;28;20410;-76
2022/06/28 12:04:21;;;;;;;1.70;1.00;;;27.30;1.00;;;;;;5069564;28;20436;-76
2022/06/28 12:06:47;;;;;;;1.20;0.83;;;27.30;1.00;;;;;;5075226;28;20438;-75
2022/06/28 12:09:16;;;;;;;2.40;1.00;;;27.30;1.00;;;;;;5065105;28;20514;-75
2022/06/28 12:12:12;;;;;;;4.80;1.50;;;27.30;1.00;;;;;;5074130;28;20445;-75
2022/06/28 12:14:56;;;;;;;0.80;0.80;;;27.30;1.00;;;;;;5075132;28;20403;-75
2022/06/28 12:17:24;;;;;;;1.70;0.87;;;27.30;1.00;;;;;;5068763;28;20411;-76
2022/06/28 12:19:54;;;;;;;9.70;1.20;;;27.40;1.00;;;;;;5075059;28;20762;-76
2022/06/28 12:22:23;;;;;;;14.93;1.13;;;27.50;1.00;;;;;;5074578;28;20424;-76
2022/06/28 12:25:18;;;;;;;4.20;0.83;;;27.60;1.00;;;;;;5075589;28;20907;-76
2022/06/28 12:28:06;;;;;;;4.00;1.33;;;27.70;1.00;;;;;;5074334;28;20470;-76
2022/06/28 12:30:32;;;;;;;2.50;1.77;;;27.70;1.00;;;;;;5074744;28;20491;-73
2022/06/28 12:36:19;;;;;;;1.13;0.70;;;27.70;1.00;;;;;;5054478;28;20261;-80
2022/06/28 12:39:24;;;;;;;1.00;1.00;;;27.80;1.00;;;;;;5068455;28;20846;-80
2022/06/28 12:42:00;;;;;;;3.90;0.80;;;27.90;1.00;;;;;;5065329;28;20672;-77
2022/06/28 12:44:31;;;;;;;1.10;0.80;;;27.90;1.00;;;;;;5054671;28;20736;-76
2022/06/28 12:50:18;;;;;;;4.83;0.97;;;27.90;1.00;;;;;;5057377;28;20940;-86
2022/06/28 12:53:00;;;;;;;3.23;1.00;;;28.00;1.00;;;;;;5082184;28;20433;-86
2022/06/28 13:02:18;;;;;;;4.03;1.20;;;28.30;1.00;;;;;;5068375;28;20429;-77
2022/06/28 13:05:06;;;;;;;3.00;1.00;;;28.50;1.00;;;;;;5080787;28;20823;-77
2022/06/28 13:07:32;;;;;;;8.13;1.00;;;28.50;1.00;;;;;;5074164;28;20489;-77
2022/06/28 13:09:58;;;;;;;5.30;0.90;;;28.60;1.00;;;;;;5074063;28;20428;-76
2022/06/28 13:12:30;;;;;;;1.10;0.90;;;28.70;1.00;;;;;;5074068;28;20646;-77
2022/06/28 13:15:07;;;;;;;1.03;0.80;;;28.90;1.00;;;;;;5056647;28;20197;-77
2022/06/28 13:20:54;;;;;;;0.70;0.67;;;29.00;1.00;;;;;;5067476;28;20777;-86
2022/06/28 13:26:42;;;;;;;4.97;0.83;;;28.90;1.00;;;;;;5074384;28;20247;-87
2022/06/28 13:35:53;;;;;;;4.20;0.70;;;29.00;1.00;;;;;;5092125;28;20381;-86
2022/06/28 13:38:18;;;;;;;2.70;0.80;;;29.00;1.00;;;;;;5064050;28;20516;-87
2022/06/28 13:41:36;;;;;;;3.30;1.10;;;29.10;1.00;;;;;;5085174;28;20477;-87
2022/06/28 13:47:23;;;;;;;1.83;0.83;;;29.40;1.00;;;;;;5074104;28;20477;-77
2022/06/28 13:50:00;;;;;;;2.40;0.70;;;29.50;1.00;;;;;;5073333;28;20811;-78
2022/06/28 13:52:30;;;;;;;1.00;0.80;;;29.60;1.00;;;;;;5054930;28;20186;-76
2022/06/28 13:55:00;;;;;;;0.80;0.80;;;29.60;1.00;;;;;;5065108;28;20776;-77
2022/06/28 13:57:26;;;;;;;2.70;0.90;;;29.50;1.00;;;;;;5081494;28;20432;-77
2022/06/28 13:59:55;;;;;;;2.70;0.90;;;29.50;1.00;;;;;;5070846;28;20427;-76
2022/06/28 14:02:49;;;;;;;7.73;1.07;;;29.50;1.00;;;;;;5079735;28;20172;-87
2022/06/28 14:05:14;;;;;;;7.23;0.80;;;29.60;1.00;;;;;;5072530;28;20424;-87
2022/06/28 14:11:02;;;;;;;1.03;0.80;;;29.40;1.00;;;;;;5062380;28;20248;-86
2022/06/28 14:20:30;;;;;;;0.80;0.63;;;29.70;1.00;;;;;;5053870;28;20460;-86
2022/06/28 14:22:57;;;;;;;3.07;0.90;;;29.70;1.00;;;;;;5071740;28;20439;-87
2022/06/28 14:25:22;;;;;;;1.70;0.83;;;29.80;1.00;;;;;;5068438;28;20942;-87
2022/06/28 14:27:48;;;;;;;4.30;1.07;;;29.90;1.00;;;;;;5069555;28;20478;-87
2022/06/28 14:30:14;;;;;;;1.13;0.70;;;29.80;1.00;;;;;;5073107;28;20186;-87
2022/06/28 14:32:41;;;;;;;0.90;0.90;;;29.90;1.00;;;;;;5071224;28;20186;-78
2022/06/28 14:35:08;;;;;;;2.73;0.87;;;30.00;1.00;;;;;;5071833;28;20424;-78
2022/06/28 14:37:34;;;;;;;2.87;0.90;;;30.00;1.00;;;;;;5075808;28;20425;-78
2022/06/28 14:40:00;;;;;;;1.83;0.97;;;30.00;1.00;;;;;;5065998;28;20502;-78
2022/06/28 14:42:27;;;;;;;1.13;0.83;;;30.00;1.00;;;;;;5073040;28;20466;-77
2022/06/28 14:44:53;;;;;;;6.53;1.20;;;30.20;1.00;;;;;;5074641;28;20191;-78
2022/06/28 14:47:19;;;;;;;6.10;1.03;;;30.40;1.00;;;;;;5076489;28;20505;-87
2022/06/28 14:49:44;;;;;;;1.33;0.90;;;30.50;1.00;;;;;;5076314;28;20564;-87
2022/06/28 14:52:19;;;;;;;1.20;1.00;;;30.70;1.00;;;;;;5074911;28;20691;-87
2022/06/28 14:54:54;;;;;;;1.50;1.00;;;30.80;1.00;;;;;;5067624;28;20193;-87
2022/06/28 14:57:20;;;;;;;2.60;1.13;;;31.10;1.00;;;;;;5075879;28;20927;-87
2022/06/28 14:59:45;;;;;;;0.70;0.60;;;31.30;1.00;;;;;;5071555;28;20507;-87
2022/06/28 15:02:11;;;;;;;1.67;0.80;;;31.40;1.00;;;;;;5074854;28;20657;-78
2022/06/28 15:04:36;;;;;;;1.43;0.90;;;31.40;1.00;;;;;;5075513;28;20654;-76
2022/06/28 15:07:03;;;;;;;1.63;0.90;;;31.30;1.00;;;;;;5075480;28;20218;-77
2022/06/28 15:09:30;;;;;;;1.40;0.80;;;31.40;1.00;;;;;;5075723;28;20730;-78
2022/06/28 15:11:56;;;;;;;2.00;0.93;;;32.00;1.00;;;;;;5075159;28;20429;-78
2022/06/28 15:14:22;;;;;;;2.83;1.10;;;32.90;1.00;;;;;;5075190;28;20884;-78
2022/06/28 15:16:47;;;;;;;0.93;0.87;;;33.90;1.00;;;;;;5075931;28;20456;-78
2022/06/28 15:19:13;;;;;;;2.97;0.70;;;35.00;1.00;;;;;;5075388;28;20186;-78
2022/06/28 15:32:37;;;;;;;0.80;0.70;;;41.50;1.00;;;;;;5071573;28;20401;-87
2022/06/28 15:35:04;;;;;;;0.90;0.60;;;42.30;1.00;;;;;;5075796;28;20417;-87
2022/06/28 15:37:30;;;;;;;2.50;0.63;;;42.30;1.00;;;;;;5074482;28;20530;-87
2022/06/28 15:39:55;;;;;;;0.90;0.80;;;42.40;1.00;;;;;;5075445;28;20869;-87